Time;durP1;ratioP1;P1;durP2;ratioP2;P2;SDS_P1;SDS_P2;PMS_P1;PMS_P2;Temp;Humidity;BMP_temperature;BMP_pressure;BME280_temperature;BME280_humidity;BME280_pressure;Samples;Min_cycle;Max_cycle;Signal;HPM_P1;HPM_P2
2023/08/21 00:01:12;;;;;;;6.00;5.40;;;22.00;1.00;;;;;;5175031;28;20052;-70
2023/08/21 00:03:53;;;;;;;6.40;5.35;;;21.90;1.00;;;;;;5160137;28;20388;-69
2023/08/21 00:06:27;;;;;;;9.27;5.20;;;22.00;1.00;;;;;;5193739;28;20033;-70
2023/08/21 00:09:01;;;;;;;10.70;6.07;;;21.90;1.00;;;;;;5180956;28;20040;-70
2023/08/21 00:11:33;;;;;;;8.13;5.53;;;21.90;1.00;;;;;;5171962;28;20376;-69
2023/08/21 00:14:10;;;;;;;6.13;5.07;;;21.90;1.00;;;;;;5163600;28;20061;-69
2023/08/21 00:16:44;;;;;;;7.45;5.57;;;21.90;1.00;;;;;;5159605;28;20056;-69
2023/08/21 00:19:22;;;;;;;7.00;5.50;;;21.90;1.00;;;;;;5178648;28;20514;-69
2023/08/21 00:21:57;;;;;;;6.57;5.28;;;21.90;1.00;;;;;;5170501;28;20365;-70
2023/08/21 00:24:28;;;;;;;7.18;5.40;;;22.00;1.00;;;;;;5165360;28;20064;-70
2023/08/21 00:27:05;;;;;;;6.63;5.30;;;21.90;1.00;;;;;;5178525;28;20041;-69
2023/08/21 00:29:36;;;;;;;6.60;4.60;;;22.00;1.00;;;;;;5214646;28;20044;-70
2023/08/21 00:32:14;;;;;;;8.43;5.10;;;22.00;1.00;;;;;;5174169;28;20045;-70
2023/08/21 00:34:49;;;;;;;5.50;4.22;;;22.00;1.00;;;;;;5174909;28;20041;-69
2023/08/21 00:37:24;;;;;;;6.55;4.47;;;22.10;1.00;;;;;;5167322;28;20044;-70
2023/08/21 00:39:55;;;;;;;6.38;4.60;;;22.20;1.00;;;;;;5188844;28;20052;-70
2023/08/21 00:42:37;;;;;;;8.20;4.75;;;22.30;1.00;;;;;;5158145;28;20045;-70
2023/08/21 00:45:09;;;;;;;5.60;3.97;;;22.30;1.00;;;;;;5192371;28;20045;-69
2023/08/21 00:47:41;;;;;;;6.03;4.80;;;22.30;1.00;;;;;;5180456;28;20056;-71
2023/08/21 00:50:17;;;;;;;5.60;4.88;;;22.30;1.00;;;;;;5182890;28;20041;-68
2023/08/21 00:52:49;;;;;;;6.72;4.72;;;22.30;1.00;;;;;;5178586;28;20048;-69
2023/08/21 00:55:21;;;;;;;7.95;4.88;;;22.10;1.00;;;;;;5178513;28;20037;-69
2023/08/21 00:57:54;;;;;;;6.53;5.03;;;22.00;1.00;;;;;;5191493;28;20037;-70
2023/08/21 01:00:30;;;;;;;6.88;5.10;;;22.00;1.00;;;;;;5175720;28;20040;-69
2023/08/21 01:03:03;;;;;;;5.40;4.68;;;21.90;1.00;;;;;;5236462;23;20052;-69
2023/08/21 01:05:37;;;;;;;8.18;5.90;;;21.80;1.00;;;;;;5183610;28;20351;-69
2023/08/21 01:08:35;;;;;;;9.15;5.85;;;21.80;1.00;;;;;;5202527;28;20039;-70
2023/08/21 01:11:45;;;;;;;7.68;5.18;;;21.80;1.00;;;;;;5185369;28;20068;-69
2023/08/21 01:14:36;;;;;;;6.30;5.50;;;21.60;1.00;;;;;;5170198;28;20054;-69
2023/08/21 01:17:12;;;;;;;7.00;5.47;;;21.50;1.00;;;;;;5209251;28;20039;-69
2023/08/21 01:19:48;;;;;;;6.65;5.43;;;21.50;1.00;;;;;;5198926;28;20115;-71
2023/08/21 01:22:23;;;;;;;7.63;5.95;;;21.40;1.00;;;;;;5187009;28;20045;-68
2023/08/21 01:25:00;;;;;;;6.43;5.18;;;21.40;1.00;;;;;;5167033;28;20050;-68
2023/08/21 01:27:35;;;;;;;7.22;5.40;;;21.20;1.00;;;;;;5207870;28;20059;-70
2023/08/21 01:30:08;;;;;;;7.53;5.68;;;21.20;1.00;;;;;;5205216;28;20543;-69
2023/08/21 01:32:54;;;;;;;7.22;5.20;;;21.10;1.00;;;;;;5186039;28;20050;-69
2023/08/21 01:35:31;;;;;;;5.30;4.80;;;21.10;1.00;;;;;;5196329;28;20055;-69
2023/08/21 01:38:05;;;;;;;7.50;5.60;;;21.10;1.00;;;;;;5202559;28;20046;-70
2023/08/21 01:40:38;;;;;;;7.57;6.00;;;21.00;1.00;;;;;;5121815;28;20043;-68
2023/08/21 01:43:15;;;;;;;7.05;5.75;;;21.10;1.00;;;;;;5190811;28;20385;-69
2023/08/21 01:45:51;;;;;;;7.15;5.63;;;21.00;1.00;;;;;;5195246;28;20033;-69
2023/08/21 01:48:23;;;;;;;7.15;5.90;;;21.00;1.00;;;;;;5157499;28;20052;-69
2023/08/21 01:50:54;;;;;;;8.57;5.50;;;21.10;18.70;;;;;;5135773;28;20030;-69
2023/08/21 01:53:32;;;;;;;7.10;5.45;;;21.10;16.90;;;;;;5206997;28;20119;-68
2023/08/21 01:56:09;;;;;;;6.22;5.18;;;21.00;15.60;;;;;;5203904;28;20043;-69
2023/08/21 01:58:44;;;;;;;8.32;5.28;;;21.00;38.50;;;;;;5171467;28;20085;-70
2023/08/21 02:01:15;;;;;;;8.15;5.45;;;21.00;43.90;;;;;;5182733;28;20045;-71
2023/08/21 02:03:52;;;;;;;7.88;5.35;;;20.90;43.50;;;;;;5185400;28;20041;-70
2023/08/21 02:06:24;;;;;;;7.75;5.50;;;20.80;39.70;;;;;;5209847;28;20383;-70
2023/08/21 02:08:56;;;;;;;6.88;5.80;;;20.80;98.70;;;;;;5202271;28;20041;-70
2023/08/21 02:11:27;;;;;;;6.72;5.13;;;20.80;99.90;;;;;;5184456;28;20574;-71
2023/08/21 02:13:59;;;;;;;7.20;5.85;;;20.80;81.40;;;;;;5186209;28;20041;-70
2023/08/21 02:16:35;;;;;;;8.02;6.00;;;20.80;99.90;;;;;;5181027;28;20361;-70
2023/08/21 02:19:11;;;;;;;8.80;6.18;;;20.60;99.90;;;;;;5217046;28;20060;-70
2023/08/21 02:21:43;;;;;;;9.18;5.97;;;20.60;99.90;;;;;;5169332;28;20051;-70
2023/08/21 02:24:17;;;;;;;7.80;5.70;;;20.50;99.90;;;;;;5206384;28;20029;-70
2023/08/21 02:26:51;;;;;;;7.97;6.13;;;20.50;99.90;;;;;;5168771;28;20049;-69
2023/08/21 02:29:30;;;;;;;8.93;6.00;;;20.60;99.90;;;;;;5182534;28;20042;-69
2023/08/21 02:32:09;;;;;;;7.20;5.55;;;20.60;99.90;;;;;;5187913;28;20033;-70
2023/08/21 02:34:45;;;;;;;8.30;6.15;;;20.60;99.90;;;;;;5198628;28;20079;-70
2023/08/21 02:37:22;;;;;;;8.30;5.47;;;20.50;99.90;;;;;;5164518;28;20367;-70
2023/08/21 02:39:54;;;;;;;7.30;5.60;;;20.50;99.90;;;;;;5182831;28;20038;-69
2023/08/21 02:42:32;;;;;;;7.28;5.75;;;20.40;99.90;;;;;;5188307;28;20044;-70
2023/08/21 02:45:07;;;;;;;7.43;5.45;;;20.40;99.90;;;;;;5171434;28;20041;-70
2023/08/21 02:47:40;;;;;;;7.93;5.63;;;20.40;99.90;;;;;;5201265;28;20072;-70
2023/08/21 02:50:14;;;;;;;8.23;5.85;;;20.30;99.90;;;;;;5185110;28;20044;-69
2023/08/21 02:53:05;;;;;;;6.43;5.32;;;20.30;99.90;;;;;;5207822;28;20045;-70
2023/08/21 02:55:37;;;;;;;7.55;5.68;;;20.40;99.90;;;;;;5185824;28;20079;-70
2023/08/21 02:58:09;;;;;;;7.60;5.47;;;20.40;99.90;;;;;;5187902;28;20544;-70
2023/08/21 03:00:45;;;;;;;7.97;6.03;;;20.40;99.90;;;;;;5196944;28;20083;-70
2023/08/21 03:03:17;;;;;;;6.32;5.28;;;20.40;99.90;;;;;;5201970;28;20040;-69
2023/08/21 03:05:50;;;;;;;8.85;5.18;;;20.30;99.90;;;;;;5199634;28;20056;-69
2023/08/21 03:08:23;;;;;;;7.45;5.47;;;20.30;99.90;;;;;;5201482;28;20043;-70
2023/08/21 03:11:04;;;;;;;7.90;5.97;;;20.30;99.90;;;;;;5169940;28;20044;-69
2023/08/21 03:13:35;;;;;;;8.73;6.03;;;20.30;99.90;;;;;;5199591;28;20351;-69
2023/08/21 03:16:07;;;;;;;8.20;5.78;;;20.30;99.90;;;;;;5193954;28;20503;-69
2023/08/21 03:19:00;;;;;;;9.57;6.22;;;20.30;99.90;;;;;;5180845;28;20038;-70
2023/08/21 03:21:32;;;;;;;8.05;5.90;;;20.40;99.90;;;;;;5188549;28;20098;-69
2023/08/21 03:24:11;;;;;;;7.47;5.55;;;20.50;99.90;;;;;;5225530;28;20024;-69
2023/08/21 03:26:43;;;;;;;7.50;5.40;;;20.50;99.90;;;;;;5205636;28;20036;-69
2023/08/21 03:29:15;;;;;;;7.45;5.38;;;20.50;99.90;;;;;;5205843;28;20033;-69
2023/08/21 03:31:54;;;;;;;6.93;5.63;;;20.50;99.90;;;;;;5199133;28;20033;-69
2023/08/21 03:34:25;;;;;;;8.25;5.78;;;20.40;97.80;;;;;;5185403;28;20435;-69
2023/08/21 03:36:59;;;;;;;7.20;5.90;;;20.50;99.90;;;;;;5183350;28;20366;-69
2023/08/21 03:39:31;;;;;;;7.95;5.55;;;20.40;99.90;;;;;;5182521;28;20053;-69
2023/08/21 03:42:05;;;;;;;6.65;5.57;;;20.40;99.90;;;;;;5187593;28;20048;-70
2023/08/21 03:44:45;;;;;;;9.43;6.53;;;20.30;99.90;;;;;;5184790;28;20511;-70
2023/08/21 03:47:17;;;;;;;8.52;6.32;;;20.30;99.90;;;;;;5166886;28;20055;-69
2023/08/21 03:49:51;;;;;;;10.45;6.22;;;20.20;99.90;;;;;;5190529;28;20119;-69
2023/08/21 03:52:23;;;;;;;7.70;6.38;;;20.20;99.90;;;;;;5178190;28;20047;-70
2023/08/21 03:54:59;;;;;;;7.85;5.50;;;20.20;99.90;;;;;;5195193;28;20382;-69
2023/08/21 03:57:33;;;;;;;9.07;6.97;;;20.20;99.90;;;;;;5202748;28;20203;-68
2023/08/21 04:00:09;;;;;;;7.13;5.80;;;20.30;99.90;;;;;;5198378;28;20319;-70
2023/08/21 04:02:41;;;;;;;7.40;5.97;;;20.30;99.90;;;;;;5202139;28;20358;-69
2023/08/21 04:05:13;;;;;;;7.78;6.35;;;20.30;99.90;;;;;;5204181;28;20036;-69
2023/08/21 04:07:44;;;;;;;8.18;6.45;;;20.30;99.90;;;;;;5203006;28;20283;-71
2023/08/21 04:10:16;;;;;;;7.25;5.88;;;20.30;99.90;;;;;;5201020;28;20045;-70
2023/08/21 04:12:48;;;;;;;7.93;6.03;;;20.30;99.90;;;;;;5202045;28;20037;-69
2023/08/21 04:15:27;;;;;;;8.40;6.22;;;20.30;99.90;;;;;;5198532;28;20033;-69
2023/08/21 04:18:04;;;;;;;8.05;5.68;;;20.30;99.90;;;;;;5187152;28;20041;-69
2023/08/21 04:20:38;;;;;;;7.03;5.90;;;20.40;99.90;;;;;;5187828;28;20033;-69
2023/08/21 04:23:12;;;;;;;7.50;6.55;;;20.50;99.90;;;;;;5188180;28;20032;-70
2023/08/21 04:25:46;;;;;;;6.32;5.47;;;20.60;99.90;;;;;;5197390;28;20041;-70
2023/08/21 04:28:18;;;;;;;;;;;20.70;57.20;;;;;;5199632;28;21699;-70
2023/08/21 04:30:49;;;;;;;11.98;5.65;;;20.70;38.00;;;;;;5197331;28;19927;-70
2023/08/21 04:33:25;;;;;;;8.90;6.35;;;20.90;10.90;;;;;;5212028;28;20030;-70
2023/08/21 04:36:02;;;;;;;8.05;5.72;;;21.00;1.00;;;;;;5181409;28;20626;-70
2023/08/21 04:38:37;;;;;;;6.85;5.28;;;21.00;1.00;;;;;;5200257;28;20033;-70
2023/08/21 04:41:10;;;;;;;7.40;5.47;;;21.00;1.00;;;;;;5186183;28;20503;-70
2023/08/21 04:43:49;;;;;;;7.22;5.65;;;21.00;1.00;;;;;;5176938;28;20053;-69
2023/08/21 04:46:21;;;;;;;7.57;6.03;;;21.10;1.00;;;;;;5212413;28;20033;-70
2023/08/21 04:48:58;;;;;;;6.90;5.13;;;21.10;1.00;;;;;;5171870;28;20048;-69
2023/08/21 04:51:32;;;;;;;6.93;5.55;;;21.10;1.00;;;;;;5200270;28;20330;-69
2023/08/21 04:54:11;;;;;;;6.55;4.85;;;21.10;1.00;;;;;;5185552;28;20202;-69
2023/08/21 04:56:43;;;;;;;7.68;6.13;;;21.10;1.00;;;;;;5189633;28;20041;-69
2023/08/21 04:59:17;;;;;;;6.85;5.63;;;21.00;1.00;;;;;;5181055;28;20041;-70
2023/08/21 05:01:48;;;;;;;11.23;5.80;;;21.10;1.00;;;;;;5180777;28;20047;-69
2023/08/21 05:04:23;;;;;;;7.45;5.50;;;21.10;1.00;;;;;;5196873;28;20667;-70
2023/08/21 05:06:58;;;;;;;6.97;5.75;;;21.20;1.00;;;;;;5201787;28;20432;-69
2023/08/21 05:09:32;;;;;;;;;;;21.30;2.30;;;;;;5201074;28;20390;-69
2023/08/21 05:12:07;;;;;;;8.40;5.50;;;21.30;1.00;;;;;;5185697;28;19916;-69
2023/08/21 05:14:41;;;;;;;6.22;5.22;;;21.30;1.00;;;;;;5195131;28;20051;-69
2023/08/21 05:17:15;;;;;;;9.48;5.82;;;21.40;1.00;;;;;;5181320;28;20045;-69
2023/08/21 05:19:49;;;;;;;7.82;5.00;;;21.50;1.00;;;;;;5221135;28;20035;-72
2023/08/21 05:22:26;;;;;;;7.32;5.43;;;21.60;1.00;;;;;;5182927;28;20045;-70
2023/08/21 05:25:12;;;;;;;8.25;6.00;;;21.70;1.00;;;;;;5168279;28;20041;-71
2023/08/21 05:27:44;;;;;;;7.43;5.93;;;21.80;1.00;;;;;;5199289;28;20490;-69
2023/08/21 05:30:16;;;;;;;7.97;5.75;;;21.80;1.00;;;;;;5173683;28;20051;-70
2023/08/21 05:32:47;;;;;;;7.30;5.78;;;21.90;1.00;;;;;;5202959;28;20041;-71
2023/08/21 05:35:24;;;;;;;7.75;5.95;;;22.10;1.00;;;;;;5203423;28;20052;-69
2023/08/21 05:37:56;;;;;;;8.13;5.60;;;22.10;1.00;;;;;;5167963;28;20399;-69
2023/08/21 05:40:32;;;;;;;7.95;6.15;;;22.20;1.00;;;;;;5187506;28;20037;-69
2023/08/21 05:43:06;;;;;;;7.75;5.97;;;22.20;1.00;;;;;;5173711;28;20049;-69
2023/08/21 05:45:38;;;;;;;9.15;6.05;;;22.60;1.00;;;;;;5163251;28;20037;-70
2023/08/21 05:48:12;;;;;;;6.65;5.80;;;23.10;1.00;;;;;;5206617;28;20264;-69
2023/08/21 05:50:44;;;;;;;6.82;5.68;;;23.60;99.90;;;;;;5199984;28;20338;-69
2023/08/21 05:53:18;;;;;;;8.80;6.03;;;24.10;99.90;;;;;;5182522;28;20041;-69
2023/08/21 05:55:53;;;;;;;7.43;5.38;;;24.40;1.00;;;;;;5183251;28;20040;-71
2023/08/21 05:58:31;;;;;;;7.57;5.40;;;24.20;1.00;;;;;;5182534;28;20033;-68
2023/08/21 06:01:05;;;;;;;7.30;5.43;;;24.10;1.00;;;;;;5203106;28;20076;-70
2023/08/21 06:03:39;;;;;;;7.78;5.00;;;24.00;1.00;;;;;;5200116;28;20067;-70
2023/08/21 06:06:13;;;;;;;6.15;5.15;;;23.80;1.00;;;;;;5203318;28;20052;-70
2023/08/21 06:08:57;;;;;;;;;;;23.40;1.00;;;;;;5165737;28;20060;-69
2023/08/21 06:11:35;;;;;;;8.73;5.32;;;23.20;99.90;;;;;;5186395;28;20996;-70
2023/08/21 06:14:11;;;;;;;6.80;5.35;;;23.10;1.00;;;;;;5205785;28;20104;-70
2023/08/21 06:16:45;;;;;;;8.10;5.85;;;23.10;99.90;;;;;;5177130;28;20033;-70
2023/08/21 06:19:16;;;;;;;8.57;5.53;;;23.00;99.90;;;;;;5193086;28;20541;-69
2023/08/21 06:21:48;;;;;;;6.18;5.53;;;22.90;1.00;;;;;;5215857;28;20029;-70
2023/08/21 06:24:20;;;;;;;7.38;5.63;;;22.90;1.00;;;;;;5197250;28;20250;-69
2023/08/21 06:26:54;;;;;;;7.93;5.80;;;23.00;1.00;;;;;;5180547;28;20374;-71
2023/08/21 06:29:26;;;;;;;6.38;5.10;;;23.10;1.00;;;;;;5190863;28;20406;-71
2023/08/21 06:31:57;;;;;;;6.30;4.95;;;23.10;99.90;;;;;;5194701;28;20233;-70
2023/08/21 06:34:30;;;;;;;7.13;5.55;;;23.20;99.90;;;;;;5194955;28;20044;-70
2023/08/21 06:37:01;;;;;;;8.10;5.65;;;23.30;99.90;;;;;;5189469;28;20055;-71
2023/08/21 06:39:36;;;;;;;9.10;5.07;;;23.30;99.90;;;;;;5202558;28;20041;-71
2023/08/21 06:42:08;;;;;;;7.22;5.68;;;23.40;99.90;;;;;;5187860;28;20040;-71
2023/08/21 06:44:40;;;;;;;9.13;6.25;;;23.50;99.90;;;;;;5188744;28;20040;-70
2023/08/21 06:47:14;;;;;;;7.07;5.55;;;23.60;99.90;;;;;;5196610;28;20049;-69
2023/08/21 06:49:48;;;;;;;8.25;5.35;;;23.70;99.90;;;;;;5190052;28;20253;-71
2023/08/21 06:52:22;;;;;;;8.10;6.28;;;23.80;94.10;;;;;;5201358;28;20052;-70
2023/08/21 06:54:56;;;;;;;10.00;5.57;;;23.90;99.90;;;;;;5202149;28;20049;-70
2023/08/21 06:57:32;;;;;;;6.85;5.65;;;23.90;99.90;;;;;;5204551;28;20043;-69
2023/08/21 07:00:09;;;;;;;7.15;5.45;;;24.20;46.90;;;;;;5202305;28;20041;-70
2023/08/21 07:02:45;;;;;;;8.02;5.72;;;24.60;1.00;;;;;;5203542;28;20051;-70
2023/08/21 07:05:19;;;;;;;8.15;5.07;;;24.90;1.00;;;;;;5222996;28;20029;-69
2023/08/21 07:07:54;;;;;;;6.55;5.28;;;25.30;1.00;;;;;;5232045;28;20032;-70
2023/08/21 07:10:27;;;;;;;6.82;5.35;;;25.80;1.00;;;;;;5210120;28;20045;-71
2023/08/21 07:13:02;;;;;;;5.80;5.05;;;26.20;14.50;;;;;;5226030;28;20044;-72
2023/08/21 07:15:39;;;;;;;6.18;5.00;;;26.30;1.00;;;;;;5222499;28;20044;-70
2023/08/21 07:18:18;;;;;;;6.13;4.45;;;26.40;1.00;;;;;;5214250;28;20037;-70
2023/08/21 07:20:55;;;;;;;7.15;5.05;;;26.70;1.00;;;;;;5192278;28;20053;-69
2023/08/21 07:23:35;;;;;;;8.18;5.10;;;27.20;1.00;;;;;;5201924;28;20037;-71
2023/08/21 07:26:08;;;;;;;6.32;4.60;;;27.80;1.00;;;;;;5218237;28;20043;-70
2023/08/21 07:28:39;;;;;;;6.72;4.78;;;28.30;1.00;;;;;;5177393;28;20060;-68
2023/08/21 07:31:11;;;;;;;5.13;4.60;;;28.70;99.90;;;;;;5189242;28;20500;-69
2023/08/21 07:33:47;;;;;;;6.72;4.55;;;29.00;1.00;;;;;;5183992;28;20233;-69
2023/08/21 07:36:19;;;;;;;5.97;4.78;;;29.20;1.00;;;;;;5205460;28;20043;-69
2023/08/21 07:38:53;;;;;;;5.68;4.57;;;29.40;1.00;;;;;;5223223;28;20035;-71
2023/08/21 07:41:25;;;;;;;4.93;4.43;;;29.60;1.00;;;;;;5222505;28;20034;-70
2023/08/21 07:43:59;;;;;;;4.80;4.30;;;29.80;1.00;;;;;;5208739;28;20352;-71
2023/08/21 07:46:31;;;;;;;7.20;4.35;;;30.20;1.00;;;;;;5234509;28;20036;-70
2023/08/21 07:49:08;;;;;;;8.65;5.53;;;30.60;1.00;;;;;;5189880;28;20040;-70
2023/08/21 07:51:47;;;;;;;7.13;5.03;;;31.00;1.00;;;;;;5200689;28;20040;-70
2023/08/21 07:54:19;;;;;;;6.22;4.82;;;31.10;1.00;;;;;;5205482;28;20041;-69
2023/08/21 07:56:53;;;;;;;6.63;4.90;;;31.00;99.90;;;;;;5210593;28;20045;-70
2023/08/21 07:59:25;;;;;;;6.05;4.85;;;31.10;99.90;;;;;;5181777;28;20120;-69
2023/08/21 08:01:57;;;;;;;6.05;4.93;;;31.30;99.90;;;;;;5198437;28;20044;-69
2023/08/21 08:04:31;;;;;;;6.70;5.03;;;31.60;99.90;;;;;;5183885;28;20036;-70
2023/08/21 08:07:03;;;;;;;4.72;4.28;;;31.90;99.90;;;;;;5180449;28;20537;-69
2023/08/21 08:09:37;;;;;;;6.32;4.80;;;31.80;99.90;;;;;;5209546;28;20063;-69
2023/08/21 08:12:11;;;;;;;4.93;4.35;;;31.90;99.90;;;;;;5174691;28;20048;-71
2023/08/21 08:14:47;;;;;;;;;;;32.20;1.00;;;;;;5181970;28;20034;-70
2023/08/21 08:17:21;;;;;;;6.35;4.65;;;32.50;1.00;;;;;;5217982;28;19930;-70
2023/08/21 08:19:52;;;;;;;6.57;5.53;;;32.60;1.00;;;;;;5218351;28;20502;-71
2023/08/21 08:22:27;;;;;;;10.00;5.43;;;32.70;1.00;;;;;;5201994;28;20337;-70
2023/08/21 08:25:01;;;;;;;9.15;5.88;;;32.90;1.00;;;;;;5187010;28;20037;-71
2023/08/21 08:27:37;;;;;;;5.57;5.05;;;33.20;1.00;;;;;;5163645;28;20701;-69
2023/08/21 08:30:13;;;;;;;6.63;4.80;;;33.60;1.00;;;;;;5195734;28;20021;-70
2023/08/21 08:32:47;;;;;;;9.65;5.47;;;33.90;1.00;;;;;;5217296;28;20542;-71
2023/08/21 08:35:21;;;;;;;6.22;5.00;;;34.10;1.00;;;;;;5181448;28;20041;-71
2023/08/21 08:37:59;;;;;;;6.20;5.22;;;34.50;1.00;;;;;;5187335;28;20037;-70
2023/08/21 08:40:42;;;;;;;6.03;5.38;;;34.70;1.00;;;;;;5185979;28;20484;-70
2023/08/21 08:43:15;;;;;;;6.97;5.20;;;34.60;1.00;;;;;;5182569;28;20041;-70
2023/08/21 08:45:51;;;;;;;6.95;5.43;;;34.70;1.00;;;;;;5182251;28;20047;-70
2023/08/21 08:48:26;;;;;;;5.00;4.50;;;34.60;1.00;;;;;;5183391;28;20051;-71
2023/08/21 08:51:01;;;;;;;7.10;5.10;;;34.40;1.00;;;;;;5178615;28;20045;-70
2023/08/21 08:53:33;;;;;;;8.30;4.97;;;34.20;1.00;;;;;;5205039;28;20050;-71
2023/08/21 08:56:11;;;;;;;7.28;5.25;;;34.10;1.00;;;;;;5184028;28;20026;-71
2023/08/21 08:58:45;;;;;;;5.57;4.75;;;34.50;1.00;;;;;;5199763;28;20033;-70
2023/08/21 09:01:16;;;;;;;;;;;35.00;1.00;;;;;;5190048;28;20044;-70
2023/08/21 09:03:52;;;;;;;7.32;5.10;;;35.30;1.00;;;;;;5175711;28;19921;-72
2023/08/21 09:06:24;;;;;;;5.97;4.50;;;35.00;1.00;;;;;;5195453;28;20021;-70
2023/08/21 09:08:58;;;;;;;8.25;4.20;;;34.90;1.00;;;;;;5199144;28;20048;-72
2023/08/21 09:11:33;;;;;;;5.57;4.13;;;35.10;1.00;;;;;;5165173;28;20048;-71
2023/08/21 09:14:05;;;;;;;7.68;4.78;;;35.30;1.00;;;;;;5196236;28;20033;-71
2023/08/21 09:16:38;;;;;;;4.90;4.47;;;35.60;1.00;;;;;;5196673;28;20041;-70
2023/08/21 09:19:10;;;;;;;5.65;4.05;;;35.70;1.00;;;;;;5187234;28;20041;-71
2023/08/21 09:21:47;;;;;;;24.05;4.55;;;35.10;1.00;;;;;;5220456;28;20048;-72
2023/08/21 09:24:20;;;;;;;5.75;4.47;;;35.30;1.00;;;;;;5166769;28;20045;-72
2023/08/21 09:26:56;;;;;;;6.13;4.57;;;35.30;1.00;;;;;;5203478;28;20043;-70
2023/08/21 09:29:42;;;;;;;4.85;4.18;;;35.40;1.00;;;;;;5202251;28;20038;-72
2023/08/21 09:32:19;;;;;;;5.53;4.35;;;35.40;1.00;;;;;;5193301;28;20051;-71
2023/08/21 09:34:56;;;;;;;5.82;4.22;;;35.50;1.00;;;;;;5186560;28;20048;-71
2023/08/21 09:37:33;;;;;;;5.00;4.13;;;35.90;1.00;;;;;;5222195;28;20238;-71
2023/08/21 09:40:11;;;;;;;5.32;4.80;;;36.00;1.00;;;;;;5207329;28;20043;-71
2023/08/21 09:42:42;;;;;;;5.38;4.85;;;35.90;1.00;;;;;;5198724;28;20026;-71
2023/08/21 09:45:14;;;;;;;5.18;4.45;;;35.70;1.00;;;;;;5200840;28;20037;-71
2023/08/21 09:47:50;;;;;;;5.15;4.20;;;35.00;1.00;;;;;;5181607;28;20049;-71
2023/08/21 09:50:22;;;;;;;7.13;4.32;;;35.50;1.00;;;;;;5203523;28;20037;-71
2023/08/21 09:52:57;;;;;;;5.40;4.57;;;36.20;1.00;;;;;;5201075;28;20033;-70
2023/08/21 09:55:34;;;;;;;5.80;4.82;;;36.50;1.00;;;;;;5214217;28;20041;-71
2023/08/21 09:58:09;;;;;;;6.05;4.68;;;36.70;1.00;;;;;;5185030;28;20052;-71
2023/08/21 10:00:45;;;;;;;7.18;5.25;;;37.30;1.00;;;;;;5182139;28;20337;-71
2023/08/21 10:03:29;;;;;;;8.77;5.00;;;37.30;1.00;;;;;;5195880;28;20041;-71
2023/08/21 10:06:06;;;;;;;6.45;5.28;;;36.50;1.00;;;;;;5219680;28;20052;-70
2023/08/21 10:08:45;;;;;;;10.30;5.05;;;37.00;1.00;;;;;;5185035;28;20330;-70
2023/08/21 10:11:22;;;;;;;5.60;5.07;;;37.80;1.00;;;;;;5184512;28;20345;-70
2023/08/21 10:13:55;;;;;;;7.55;5.00;;;38.20;1.00;;;;;;5209120;28;20041;-71
2023/08/21 10:16:30;;;;;;;5.10;4.60;;;38.60;1.00;;;;;;5200699;28;20025;-70
2023/08/21 10:19:10;;;;;;;5.53;4.40;;;38.60;1.00;;;;;;5200754;28;20033;-71
2023/08/21 10:21:49;;;;;;;5.13;4.63;;;39.40;1.00;;;;;;5187571;28;20030;-71
2023/08/21 10:24:38;;;;;;;5.50;4.68;;;40.20;1.00;;;;;;5188253;28;20055;-72
2023/08/21 10:27:12;;;;;;;4.63;4.22;;;40.20;1.00;;;;;;5189511;28;20054;-71
2023/08/21 10:30:00;;;;;;;5.53;4.38;;;40.90;1.00;;;;;;5221504;28;20029;-71
2023/08/21 10:32:50;;;;;;;7.53;4.00;;;41.20;99.90;;;;;;5186655;28;20635;-70
2023/08/21 10:35:36;;;;;;;6.18;4.50;;;40.70;99.90;;;;;;5192188;28;20045;-71
2023/08/21 10:38:10;;;;;;;5.00;4.05;;;40.90;99.90;;;;;;5208977;28;20057;-71
2023/08/21 10:41:10;;;;;;;7.90;4.85;;;41.60;99.90;;;;;;5196506;28;20048;-70
2023/08/21 10:43:48;;;;;;;4.85;4.13;;;40.60;99.90;;;;;;5196500;28;20035;-70
2023/08/21 10:46:21;;;;;;;5.30;4.22;;;40.60;99.90;;;;;;5208993;28;20036;-70
2023/08/21 10:48:54;;;;;;;5.78;4.72;;;41.20;99.90;;;;;;5188778;28;20048;-70
2023/08/21 10:51:29;;;;;;;4.38;3.97;;;42.10;99.90;;;;;;5204496;28;20033;-70
2023/08/21 10:54:12;;;;;;;4.63;4.22;;;42.10;99.90;;;;;;5188967;28;20242;-70
2023/08/21 10:56:50;;;;;;;5.72;4.13;;;42.70;99.90;;;;;;5184882;28;20045;-71
2023/08/21 10:59:24;;;;;;;5.20;4.43;;;44.00;99.90;;;;;;5171007;28;20037;-71
2023/08/21 11:01:58;;;;;;;5.95;4.45;;;44.50;99.90;;;;;;5178761;28;20041;-70
2023/08/21 11:04:41;;;;;;;4.50;4.10;;;44.40;99.90;;;;;;5186595;28;20025;-71
2023/08/21 11:07:20;;;;;;;4.32;4.03;;;44.80;99.90;;;;;;5212227;28;20338;-70
2023/08/21 11:09:55;;;;;;;4.45;4.05;;;45.40;99.90;;;;;;5233826;28;20037;-71
2023/08/21 11:12:29;;;;;;;5.03;4.35;;;45.40;99.90;;;;;;5183134;28;20045;-72
2023/08/21 11:15:02;;;;;;;4.30;3.90;;;45.60;99.90;;;;;;5185205;28;20046;-70
2023/08/21 11:17:36;;;;;;;4.32;3.97;;;46.10;99.90;;;;;;5198755;28;20034;-69
2023/08/21 11:20:08;;;;;;;;;;;46.20;99.90;;;;;;5176823;28;20041;-71
2023/08/21 11:22:39;;;;;;;4.70;4.22;;;46.50;99.90;;;;;;5186525;28;20342;-71
2023/08/21 11:25:11;;;;;;;4.18;3.78;;;46.30;54.00;;;;;;5222274;28;20394;-70
2023/08/21 11:27:50;;;;;;;7.97;4.35;;;46.30;49.30;;;;;;5202162;28;20249;-71
2023/08/21 11:30:25;;;;;;;5.53;4.40;;;46.40;42.50;;;;;;5203861;28;20462;-71
2023/08/21 11:33:10;;;;;;;4.40;4.00;;;44.70;28.40;;;;;;5204470;28;20050;-70
2023/08/21 11:35:44;;;;;;;4.30;3.90;;;45.50;58.50;;;;;;5202624;28;20067;-70
2023/08/21 11:38:21;;;;;;;3.90;3.50;;;45.80;99.90;;;;;;5179303;28;20049;-71
2023/08/21 11:41:02;;;;;;;3.80;3.50;;;45.80;74.70;;;;;;5204610;28;20437;-72
2023/08/21 11:43:42;;;;;;;5.10;4.22;;;46.10;99.90;;;;;;5202485;28;20029;-72
2023/08/21 11:46:24;;;;;;;4.40;4.00;;;47.30;99.90;;;;;;5201103;28;20047;-71
2023/08/21 11:48:55;;;;;;;4.10;3.80;;;48.20;91.90;;;;;;5209882;28;20385;-71
2023/08/21 11:51:28;;;;;;;4.50;4.10;;;48.40;62.10;;;;;;5185461;28;20060;-71
2023/08/21 11:54:06;;;;;;;4.38;3.63;;;47.80;47.50;;;;;;5199729;28;20029;-73
2023/08/21 11:56:41;;;;;;;4.20;3.80;;;47.10;21.90;;;;;;5176393;28;20041;-71
2023/08/21 11:59:25;;;;;;;4.63;4.22;;;46.90;14.50;;;;;;5220279;28;20052;-71
2023/08/21 12:01:57;;;;;;;3.85;3.55;;;46.80;99.90;;;;;;5197513;28;20038;-71
2023/08/21 12:04:29;;;;;;;3.92;3.53;;;46.90;99.90;;;;;;5186052;28;20045;-69
2023/08/21 12:07:06;;;;;;;4.20;3.80;;;46.50;86.30;;;;;;5204943;28;20075;-70
2023/08/21 12:09:51;;;;;;;5.68;3.95;;;46.40;90.60;;;;;;5192765;28;20390;-71
2023/08/21 12:12:25;;;;;;;6.15;4.22;;;47.30;98.30;;;;;;5173747;28;20037;-73
2023/08/21 12:14:57;;;;;;;4.07;3.65;;;48.20;99.90;;;;;;5208270;28;20045;-71
2023/08/21 12:17:32;;;;;;;4.10;3.70;;;48.20;99.90;;;;;;5200881;28;20063;-70
2023/08/21 12:20:11;;;;;;;4.38;3.97;;;47.50;29.90;;;;;;5204804;28;20052;-71
2023/08/21 12:22:42;;;;;;;4.43;4.05;;;47.20;20.60;;;;;;5202209;28;20061;-70
2023/08/21 12:25:19;;;;;;;4.60;3.42;;;46.50;23.90;;;;;;5215974;28;20037;-69
2023/08/21 12:27:53;;;;;;;4.40;4.00;;;46.90;99.90;;;;;;5217573;28;20036;-72
2023/08/21 12:30:28;;;;;;;4.55;4.10;;;48.00;99.90;;;;;;5171154;28;20041;-69
2023/08/21 12:32:59;;;;;;;8.05;4.25;;;48.80;99.90;;;;;;5200345;28;20312;-71
2023/08/21 12:35:33;;;;;;;4.07;3.70;;;47.70;67.20;;;;;;5218146;28;20038;-72
2023/08/21 12:38:12;;;;;;;4.25;3.85;;;45.30;19.90;;;;;;5212099;28;20033;-70
2023/08/21 12:40:43;;;;;;;4.03;3.63;;;44.90;1.00;;;;;;5196105;28;20025;-72
2023/08/21 12:43:15;;;;;;;3.95;3.65;;;45.70;1.00;;;;;;5194786;28;20041;-72
2023/08/21 12:45:47;;;;;;;3.70;3.25;;;46.20;1.80;;;;;;5163867;28;20033;-72
2023/08/21 12:48:24;;;;;;;3.70;3.40;;;46.70;24.30;;;;;;5165280;28;20056;-72
2023/08/21 12:50:56;;;;;;;3.50;3.20;;;47.00;53.00;;;;;;5189342;28;20037;-71
2023/08/21 12:53:30;;;;;;;3.70;2.97;;;46.80;16.70;;;;;;5196962;28;20041;-71
2023/08/21 12:56:04;;;;;;;3.53;3.05;;;46.90;1.00;;;;;;5197265;28;20037;-70
2023/08/21 12:58:35;;;;;;;2.97;2.78;;;48.00;1.00;;;;;;5176252;28;20047;-72
2023/08/21 13:01:09;;;;;;;3.55;2.97;;;48.40;1.00;;;;;;5194842;28;20029;-72
2023/08/21 13:03:46;;;;;;;3.55;2.83;;;47.50;1.00;;;;;;5213674;28;20080;-70
2023/08/21 13:06:21;;;;;;;4.47;3.20;;;47.60;1.00;;;;;;5195585;28;20034;-70
2023/08/21 13:08:54;;;;;;;4.15;3.15;;;46.30;1.00;;;;;;5185633;28;20039;-70
2023/08/21 13:11:29;;;;;;;3.40;3.10;;;46.10;1.00;;;;;;5210295;28;20033;-72
2023/08/21 13:14:03;;;;;;;2.75;2.55;;;47.40;1.00;;;;;;5198722;28;20041;-71
2023/08/21 13:16:35;;;;;;;3.60;3.30;;;48.20;1.00;;;;;;5189690;28;20055;-70
2023/08/21 13:19:06;;;;;;;2.97;2.70;;;49.00;1.00;;;;;;5198544;28;20045;-69
2023/08/21 13:21:41;;;;;;;2.58;2.38;;;48.70;1.00;;;;;;5179837;28;20075;-70
2023/08/21 13:24:14;;;;;;;3.33;3.10;;;48.40;1.00;;;;;;5180038;28;20368;-70
2023/08/21 13:26:48;;;;;;;5.18;2.95;;;48.40;1.00;;;;;;5177205;28;20046;-71
2023/08/21 13:29:20;;;;;;;3.00;2.42;;;46.70;1.00;;;;;;5194187;28;20049;-70
2023/08/21 13:31:51;;;;;;;3.22;2.92;;;46.70;1.00;;;;;;5181025;28;20045;-70
2023/08/21 13:34:23;;;;;;;2.97;2.67;;;46.80;1.00;;;;;;5193024;28;20056;-71